Blountville, TN

8:45 PM EDT on September 20, 2014 (GMT -0400)
Tri-Cities Regional Tennessee / Virginia | Change Station
CLOSE
Current Station
Airport
Location: Tri-Cities,
Elevation: 1519 ft
Nearby Weather Stations

Elev 1519 ft 36.48 °N, 82.40 °W | Updated 52 minutes ago

Clear
Clear
69 °F
Feels Like 69 °F
N
4
Wind Variable Wind from North

Today
High -- | Low -- °F
--% Chance of Precip.
Yesterday
High -- | Low -- °F
Precip. -- in
7:15 AM 7:29 PM
Waning Crescent, 9% visible
Pressure 29.99 in
Visibility 10.0 miles
Clouds Few 15000 ft
Dew Point 56 °F
Humidity 63%
Rainfall 0.00 in
Snow Depth Not available.
UV 0 out of 12
Pollen 5.80 out of 12
Air Quality Not available.
Flu Activity Not available.
METAR KTRI 202353Z 36003KT 10SM FEW150 21/13 A3004 RMK AO2 SLP155 T02060133 10289 20206 56012

More Conditions Fewer Conditions

Pressure 29.99 in
Visibility 10.0 miles
Clouds Few 15000 ft
Dew Point 56 °F
Humidity 63%
Rainfall 0.00 in
Snow Depth Not available.
UV 0 out of 12
Pollen 5.80 out of 12
Air Quality Not available.
Flu Activity Not available.
METAR KTRI 202353Z 36003KT 10SM FEW150 21/13 A3004 RMK AO2 SLP155 T02060133 10289 20206 56012

More Conditions Fewer Conditions

10-Day Weather Forecast

Almanac

Astronomy

Sep. 20, 2014 Rise Set
Actual Time 7:15 AM EDT 7:29 PM EDT
Civil Twilight 6:49 AM EDT 7:55 PM EDT
Nautical Twilight 6:19 AM EDT 8:25 PM EDT
Astronomical Twilight 5:49 AM EDT 8:55 PM EDT
Moon 3:58 AM EDT (9/20) 5:28 PM EDT (9/20)
Length of Visible Light 13h 05m
Length of Day
12h 13m
Tomorrow will be 2m 19s shorter.
Waning Crescent, 9% of the Moon is Illuminated
Today
Waning Crescent
Sep 24
New
Oct 1
First Quarter
Oct 8
Full
Oct 15
Last Quarter

Today's Extremes

State Highs State Lows

Community

WunderPhotos

Upload Photos

1,755,000 photos uploaded!

WunderBlogs® & News

Nearby

Air Quality

  Air Quality AQ Index Pollutant
Yesterday Good
PM2.5
Yesterday Good
OZONE
Saturday Moderate
PM2.5
Saturday Good
OZONE
Sunday Moderate
PM2.5
Sunday Good
OZONE
Monday Good
OZONE
Monday Good
PM2.5

Snow Depth

Station Depth Elevation
No new snow has been reported.

Earthquake Activity

City Distance Mag. Time & Date
No recent earthquake activity has been reported nearby.
Minimum magnitude displayed is 2.5.

Coastal Water Temperatures

Place Temperature
No Stations Reporting

Nearby Weather Stations